sensor_id;sensor_type;location;lat;lon;timestamp;P1;durP1;ratioP1;P2;durP2;ratioP2
39788;SDS011;25478;42.626;23.320;2023-04-03T00:01:33;3.10;;;1.50;;
39788;SDS011;25478;42.626;23.320;2023-04-03T00:04:00;3.23;;;1.50;;
39788;SDS011;25478;42.626;23.320;2023-04-03T00:06:25;2.70;;;1.60;;
39788;SDS011;25478;42.626;23.320;2023-04-03T00:08:52;2.63;;;1.70;;
39788;SDS011;25478;42.626;23.320;2023-04-03T00:11:18;2.77;;;1.23;;
39788;SDS011;25478;42.626;23.320;2023-04-03T00:13:45;2.90;;;1.30;;
39788;SDS011;25478;42.626;23.320;2023-04-03T00:16:10;2.10;;;1.47;;
39788;SDS011;25478;42.626;23.320;2023-04-03T00:18:37;2.03;;;1.63;;
39788;SDS011;25478;42.626;23.320;2023-04-03T00:21:04;2.87;;;1.50;;
39788;SDS011;25478;42.626;23.320;2023-04-03T00:23:30;2.73;;;1.40;;
39788;SDS011;25478;42.626;23.320;2023-04-03T00:25:56;1.93;;;1.23;;
39788;SDS011;25478;42.626;23.320;2023-04-03T00:28:22;1.87;;;1.27;;
39788;SDS011;25478;42.626;23.320;2023-04-03T00:30:50;2.57;;;1.50;;
39788;SDS011;25478;42.626;23.320;2023-04-03T00:33:16;3.20;;;1.53;;
39788;SDS011;25478;42.626;23.320;2023-04-03T00:35:43;2.00;;;1.40;;
39788;SDS011;25478;42.626;23.320;2023-04-03T00:38:08;2.30;;;1.40;;
39788;SDS011;25478;42.626;23.320;2023-04-03T00:40:38;3.87;;;1.37;;
39788;SDS011;25478;42.626;23.320;2023-04-03T00:43:11;2.37;;;1.30;;
39788;SDS011;25478;42.626;23.320;2023-04-03T00:45:40;1.97;;;1.30;;
39788;SDS011;25478;42.626;23.320;2023-04-03T00:48:08;2.30;;;1.40;;
39788;SDS011;25478;42.626;23.320;2023-04-03T00:50:38;1.97;;;1.40;;
39788;SDS011;25478;42.626;23.320;2023-04-03T00:53:30;2.70;;;1.63;;
39788;SDS011;25478;42.626;23.320;2023-04-03T00:56:16;3.33;;;1.67;;
39788;SDS011;25478;42.626;23.320;2023-04-03T01:01:25;3.63;;;1.70;;
39788;SDS011;25478;42.626;23.320;2023-04-03T01:03:52;3.47;;;1.60;;
39788;SDS011;25478;42.626;23.320;2023-04-03T01:06:20;5.40;;;2.10;;
39788;SDS011;25478;42.626;23.320;2023-04-03T01:08:50;2.90;;;1.73;;
39788;SDS011;25478;42.626;23.320;2023-04-03T01:11:16;2.67;;;1.63;;
39788;SDS011;25478;42.626;23.320;2023-04-03T01:13:43;3.93;;;2.10;;
39788;SDS011;25478;42.626;23.320;2023-04-03T01:16:08;2.90;;;1.83;;
39788;SDS011;25478;42.626;23.320;2023-04-03T01:18:36;2.97;;;2.13;;
39788;SDS011;25478;42.626;23.320;2023-04-03T01:23:36;3.30;;;2.07;;
39788;SDS011;25478;42.626;23.320;2023-04-03T01:26:03;2.80;;;1.70;;
39788;SDS011;25478;42.626;23.320;2023-04-03T01:28:30;3.60;;;2.03;;
39788;SDS011;25478;42.626;23.320;2023-04-03T01:33:54;3.33;;;1.80;;
39788;SDS011;25478;42.626;23.320;2023-04-03T01:36:22;3.63;;;1.73;;
39788;SDS011;25478;42.626;23.320;2023-04-03T01:38:49;2.93;;;1.80;;
39788;SDS011;25478;42.626;23.320;2023-04-03T01:41:16;2.30;;;1.63;;
39788;SDS011;25478;42.626;23.320;2023-04-03T01:43:43;3.67;;;1.70;;
39788;SDS011;25478;42.626;23.320;2023-04-03T01:46:09;3.60;;;2.00;;
39788;SDS011;25478;42.626;23.320;2023-04-03T01:48:35;2.77;;;1.70;;
39788;SDS011;25478;42.626;23.320;2023-04-03T01:51:00;2.63;;;1.63;;
39788;SDS011;25478;42.626;23.320;2023-04-03T01:53:26;2.77;;;1.60;;
39788;SDS011;25478;42.626;23.320;2023-04-03T01:55:52;3.13;;;1.50;;
39788;SDS011;25478;42.626;23.320;2023-04-03T01:58:18;3.53;;;1.80;;
39788;SDS011;25478;42.626;23.320;2023-04-03T02:00:43;2.90;;;1.63;;
39788;SDS011;25478;42.626;23.320;2023-04-03T02:03:10;3.00;;;2.10;;
39788;SDS011;25478;42.626;23.320;2023-04-03T02:05:36;3.23;;;2.03;;
39788;SDS011;25478;42.626;23.320;2023-04-03T02:08:01;3.10;;;2.00;;
39788;SDS011;25478;42.626;23.320;2023-04-03T02:10:27;3.67;;;2.13;;
39788;SDS011;25478;42.626;23.320;2023-04-03T02:12:53;3.73;;;2.30;;
39788;SDS011;25478;42.626;23.320;2023-04-03T02:15:18;4.30;;;2.83;;
39788;SDS011;25478;42.626;23.320;2023-04-03T02:17:44;4.70;;;2.27;;
39788;SDS011;25478;42.626;23.320;2023-04-03T02:20:10;4.57;;;2.60;;
39788;SDS011;25478;42.626;23.320;2023-04-03T02:22:38;5.23;;;3.00;;
39788;SDS011;25478;42.626;23.320;2023-04-03T02:25:03;7.07;;;3.10;;
39788;SDS011;25478;42.626;23.320;2023-04-03T02:27:29;5.47;;;3.17;;
39788;SDS011;25478;42.626;23.320;2023-04-03T02:29:55;5.57;;;3.40;;
39788;SDS011;25478;42.626;23.320;2023-04-03T02:32:20;7.60;;;3.57;;
39788;SDS011;25478;42.626;23.320;2023-04-03T02:34:46;5.17;;;3.00;;
39788;SDS011;25478;42.626;23.320;2023-04-03T02:37:13;4.50;;;2.70;;
39788;SDS011;25478;42.626;23.320;2023-04-03T02:39:38;4.33;;;2.20;;
39788;SDS011;25478;42.626;23.320;2023-04-03T02:42:04;4.40;;;2.63;;
39788;SDS011;25478;42.626;23.320;2023-04-03T02:44:30;3.33;;;2.30;;
39788;SDS011;25478;42.626;23.320;2023-04-03T02:46:55;3.90;;;2.70;;
39788;SDS011;25478;42.626;23.320;2023-04-03T02:49:22;3.97;;;2.57;;
39788;SDS011;25478;42.626;23.320;2023-04-03T02:51:47;5.50;;;2.60;;
39788;SDS011;25478;42.626;23.320;2023-04-03T02:54:13;4.37;;;2.03;;
39788;SDS011;25478;42.626;23.320;2023-04-03T02:56:43;3.93;;;2.10;;
39788;SDS011;25478;42.626;23.320;2023-04-03T02:59:10;4.47;;;1.70;;
39788;SDS011;25478;42.626;23.320;2023-04-03T03:01:37;3.57;;;2.17;;
39788;SDS011;25478;42.626;23.320;2023-04-03T03:04:03;3.40;;;2.13;;
39788;SDS011;25478;42.626;23.320;2023-04-03T03:06:28;3.20;;;2.00;;
39788;SDS011;25478;42.626;23.320;2023-04-03T03:08:55;4.80;;;2.10;;
39788;SDS011;25478;42.626;23.320;2023-04-03T03:11:21;5.07;;;3.03;;
39788;SDS011;25478;42.626;23.320;2023-04-03T03:13:46;5.93;;;3.40;;
39788;SDS011;25478;42.626;23.320;2023-04-03T03:16:12;4.23;;;2.30;;
39788;SDS011;25478;42.626;23.320;2023-04-03T03:18:37;3.60;;;2.00;;
39788;SDS011;25478;42.626;23.320;2023-04-03T03:21:04;2.43;;;2.20;;
39788;SDS011;25478;42.626;23.320;2023-04-03T03:23:30;4.30;;;1.73;;
39788;SDS011;25478;42.626;23.320;2023-04-03T03:26:07;2.87;;;2.17;;
39788;SDS011;25478;42.626;23.320;2023-04-03T03:28:35;3.70;;;1.67;;
39788;SDS011;25478;42.626;23.320;2023-04-03T03:31:02;3.83;;;1.73;;
39788;SDS011;25478;42.626;23.320;2023-04-03T03:33:29;2.60;;;1.43;;
39788;SDS011;25478;42.626;23.320;2023-04-03T03:35:55;3.37;;;1.87;;
39788;SDS011;25478;42.626;23.320;2023-04-03T03:38:21;3.03;;;2.10;;
39788;SDS011;25478;42.626;23.320;2023-04-03T03:40:48;3.37;;;1.90;;
39788;SDS011;25478;42.626;23.320;2023-04-03T03:43:16;5.37;;;3.20;;
39788;SDS011;25478;42.626;23.320;2023-04-03T03:45:43;13.53;;;8.30;;
39788;SDS011;25478;42.626;23.320;2023-04-03T03:48:09;18.47;;;11.63;;
39788;SDS011;25478;42.626;23.320;2023-04-03T03:50:35;14.10;;;10.10;;
39788;SDS011;25478;42.626;23.320;2023-04-03T03:53:01;12.57;;;9.20;;
39788;SDS011;25478;42.626;23.320;2023-04-03T03:55:27;8.93;;;7.07;;
39788;SDS011;25478;42.626;23.320;2023-04-03T03:57:55;6.63;;;5.13;;
39788;SDS011;25478;42.626;23.320;2023-04-03T04:00:21;5.47;;;3.73;;
39788;SDS011;25478;42.626;23.320;2023-04-03T04:02:52;5.50;;;3.93;;
39788;SDS011;25478;42.626;23.320;2023-04-03T04:05:20;4.40;;;3.17;;
39788;SDS011;25478;42.626;23.320;2023-04-03T04:07:45;3.83;;;2.80;;
39788;SDS011;25478;42.626;23.320;2023-04-03T04:10:11;3.73;;;2.37;;
39788;SDS011;25478;42.626;23.320;2023-04-03T04:12:38;4.13;;;2.40;;
39788;SDS011;25478;42.626;23.320;2023-04-03T04:15:04;6.20;;;2.10;;
39788;SDS011;25478;42.626;23.320;2023-04-03T04:17:30;4.77;;;2.80;;
39788;SDS011;25478;42.626;23.320;2023-04-03T04:19:56;3.50;;;2.40;;
39788;SDS011;25478;42.626;23.320;2023-04-03T04:22:22;5.97;;;3.57;;
39788;SDS011;25478;42.626;23.320;2023-04-03T04:24:47;6.37;;;3.03;;
39788;SDS011;25478;42.626;23.320;2023-04-03T04:27:13;4.47;;;2.73;;
39788;SDS011;25478;42.626;23.320;2023-04-03T04:29:39;7.93;;;3.10;;
39788;SDS011;25478;42.626;23.320;2023-04-03T04:32:06;3.63;;;2.37;;
39788;SDS011;25478;42.626;23.320;2023-04-03T04:34:33;5.53;;;2.57;;
39788;SDS011;25478;42.626;23.320;2023-04-03T04:36:59;5.27;;;2.60;;
39788;SDS011;25478;42.626;23.320;2023-04-03T04:39:26;5.80;;;2.20;;
39788;SDS011;25478;42.626;23.320;2023-04-03T04:41:54;5.00;;;2.70;;
39788;SDS011;25478;42.626;23.320;2023-04-03T04:44:21;5.93;;;2.20;;
39788;SDS011;25478;42.626;23.320;2023-04-03T04:46:47;4.50;;;2.50;;
39788;SDS011;25478;42.626;23.320;2023-04-03T04:49:12;4.93;;;2.77;;
39788;SDS011;25478;42.626;23.320;2023-04-03T04:51:38;4.80;;;2.80;;
39788;SDS011;25478;42.626;23.320;2023-04-03T04:54:04;6.87;;;2.50;;
39788;SDS011;25478;42.626;23.320;2023-04-03T04:56:30;8.17;;;2.63;;
39788;SDS011;25478;42.626;23.320;2023-04-03T04:58:57;4.37;;;2.50;;
39788;SDS011;25478;42.626;23.320;2023-04-03T05:01:24;4.00;;;2.33;;
39788;SDS011;25478;42.626;23.320;2023-04-03T05:04:13;5.00;;;2.37;;
39788;SDS011;25478;42.626;23.320;2023-04-03T05:06:38;4.10;;;2.57;;
39788;SDS011;25478;42.626;23.320;2023-04-03T05:09:09;9.40;;;4.63;;
39788;SDS011;25478;42.626;23.320;2023-04-03T05:11:35;13.40;;;6.87;;
39788;SDS011;25478;42.626;23.320;2023-04-03T05:14:02;10.73;;;6.17;;
39788;SDS011;25478;42.626;23.320;2023-04-03T05:16:32;7.63;;;5.10;;
39788;SDS011;25478;42.626;23.320;2023-04-03T05:18:58;8.17;;;3.87;;
39788;SDS011;25478;42.626;23.320;2023-04-03T05:21:24;6.00;;;3.30;;
39788;SDS011;25478;42.626;23.320;2023-04-03T05:23:51;9.10;;;3.30;;
39788;SDS011;25478;42.626;23.320;2023-04-03T05:26:18;7.17;;;2.87;;
39788;SDS011;25478;42.626;23.320;2023-04-03T05:28:46;6.17;;;3.10;;
39788;SDS011;25478;42.626;23.320;2023-04-03T05:31:12;11.83;;;3.93;;
39788;SDS011;25478;42.626;23.320;2023-04-03T05:33:39;9.53;;;4.90;;
39788;SDS011;25478;42.626;23.320;2023-04-03T05:36:07;11.73;;;5.30;;
39788;SDS011;25478;42.626;23.320;2023-04-03T05:38:38;9.30;;;4.90;;
39788;SDS011;25478;42.626;23.320;2023-04-03T05:41:04;11.67;;;5.43;;
39788;SDS011;25478;42.626;23.320;2023-04-03T05:43:31;9.90;;;4.90;;
39788;SDS011;25478;42.626;23.320;2023-04-03T05:45:58;10.67;;;5.90;;
39788;SDS011;25478;42.626;23.320;2023-04-03T05:48:27;11.77;;;5.23;;
39788;SDS011;25478;42.626;23.320;2023-04-03T05:50:53;10.70;;;5.00;;
39788;SDS011;25478;42.626;23.320;2023-04-03T05:53:24;16.70;;;7.10;;
39788;SDS011;25478;42.626;23.320;2023-04-03T05:55:55;14.67;;;7.93;;
39788;SDS011;25478;42.626;23.320;2023-04-03T05:58:22;16.50;;;9.07;;
39788;SDS011;25478;42.626;23.320;2023-04-03T06:00:50;16.03;;;9.03;;
39788;SDS011;25478;42.626;23.320;2023-04-03T06:03:15;13.50;;;7.40;;
39788;SDS011;25478;42.626;23.320;2023-04-03T06:05:43;12.33;;;6.27;;
39788;SDS011;25478;42.626;23.320;2023-04-03T06:08:10;11.57;;;6.47;;
39788;SDS011;25478;42.626;23.320;2023-04-03T06:10:35;11.60;;;6.50;;
39788;SDS011;25478;42.626;23.320;2023-04-03T06:13:01;14.17;;;6.90;;
39788;SDS011;25478;42.626;23.320;2023-04-03T06:15:27;12.57;;;6.73;;
39788;SDS011;25478;42.626;23.320;2023-04-03T06:17:53;16.13;;;7.43;;
39788;SDS011;25478;42.626;23.320;2023-04-03T06:20:19;14.60;;;7.07;;
39788;SDS011;25478;42.626;23.320;2023-04-03T06:22:45;18.57;;;6.90;;
39788;SDS011;25478;42.626;23.320;2023-04-03T06:25:11;15.87;;;7.70;;
39788;SDS011;25478;42.626;23.320;2023-04-03T06:27:37;13.30;;;7.97;;
39788;SDS011;25478;42.626;23.320;2023-04-03T06:30:03;18.67;;;9.93;;
39788;SDS011;25478;42.626;23.320;2023-04-03T06:32:30;15.27;;;9.00;;
39788;SDS011;25478;42.626;23.320;2023-04-03T06:34:56;17.30;;;10.07;;
39788;SDS011;25478;42.626;23.320;2023-04-03T06:37:22;20.10;;;10.33;;
39788;SDS011;25478;42.626;23.320;2023-04-03T06:39:51;21.37;;;9.90;;
39788;SDS011;25478;42.626;23.320;2023-04-03T06:42:17;19.20;;;9.33;;
39788;SDS011;25478;42.626;23.320;2023-04-03T06:45:06;17.27;;;9.23;;
39788;SDS011;25478;42.626;23.320;2023-04-03T06:47:33;18.70;;;9.43;;
39788;SDS011;25478;42.626;23.320;2023-04-03T06:49:58;18.20;;;9.67;;
39788;SDS011;25478;42.626;23.320;2023-04-03T06:52:24;18.00;;;9.30;;
39788;SDS011;25478;42.626;23.320;2023-04-03T06:54:49;14.50;;;8.93;;
39788;SDS011;25478;42.626;23.320;2023-04-03T06:57:16;17.23;;;9.87;;
39788;SDS011;25478;42.626;23.320;2023-04-03T06:59:42;18.30;;;9.37;;
39788;SDS011;25478;42.626;23.320;2023-04-03T07:02:08;14.83;;;9.57;;
39788;SDS011;25478;42.626;23.320;2023-04-03T07:04:36;14.93;;;8.60;;
39788;SDS011;25478;42.626;23.320;2023-04-03T07:07:02;14.67;;;9.13;;
39788;SDS011;25478;42.626;23.320;2023-04-03T07:09:28;17.03;;;9.27;;
39788;SDS011;25478;42.626;23.320;2023-04-03T07:11:54;22.57;;;9.60;;
39788;SDS011;25478;42.626;23.320;2023-04-03T07:14:19;16.17;;;9.73;;
39788;SDS011;25478;42.626;23.320;2023-04-03T07:16:46;19.10;;;10.83;;
39788;SDS011;25478;42.626;23.320;2023-04-03T07:19:11;20.13;;;10.40;;
39788;SDS011;25478;42.626;23.320;2023-04-03T07:21:37;19.20;;;10.63;;
39788;SDS011;25478;42.626;23.320;2023-04-03T07:24:03;17.93;;;11.20;;
39788;SDS011;25478;42.626;23.320;2023-04-03T07:26:29;19.40;;;11.13;;
39788;SDS011;25478;42.626;23.320;2023-04-03T07:28:55;20.10;;;11.13;;
39788;SDS011;25478;42.626;23.320;2023-04-03T07:31:21;18.67;;;11.23;;
39788;SDS011;25478;42.626;23.320;2023-04-03T07:33:46;21.30;;;12.40;;
39788;SDS011;25478;42.626;23.320;2023-04-03T07:36:14;19.37;;;11.53;;
39788;SDS011;25478;42.626;23.320;2023-04-03T07:38:41;22.23;;;12.23;;
39788;SDS011;25478;42.626;23.320;2023-04-03T07:41:07;22.53;;;13.53;;
39788;SDS011;25478;42.626;23.320;2023-04-03T07:43:38;18.53;;;13.60;;
39788;SDS011;25478;42.626;23.320;2023-04-03T07:46:04;20.00;;;12.73;;
39788;SDS011;25478;42.626;23.320;2023-04-03T07:48:30;49.63;;;29.27;;
39788;SDS011;25478;42.626;23.320;2023-04-03T07:50:59;25.30;;;14.90;;
39788;SDS011;25478;42.626;23.320;2023-04-03T07:53:26;18.63;;;12.27;;
39788;SDS011;25478;42.626;23.320;2023-04-03T07:55:51;23.57;;;12.13;;
39788;SDS011;25478;42.626;23.320;2023-04-03T07:58:20;18.13;;;11.90;;
39788;SDS011;25478;42.626;23.320;2023-04-03T08:00:47;19.90;;;11.77;;
39788;SDS011;25478;42.626;23.320;2023-04-03T08:03:14;18.90;;;11.40;;
39788;SDS011;25478;42.626;23.320;2023-04-03T08:05:42;18.40;;;11.20;;
39788;SDS011;25478;42.626;23.320;2023-04-03T08:08:11;17.30;;;10.97;;
39788;SDS011;25478;42.626;23.320;2023-04-03T08:10:38;18.17;;;11.67;;
39788;SDS011;25478;42.626;23.320;2023-04-03T08:13:04;16.80;;;11.37;;
39788;SDS011;25478;42.626;23.320;2023-04-03T08:15:31;19.50;;;11.47;;
39788;SDS011;25478;42.626;23.320;2023-04-03T08:17:57;14.20;;;10.47;;
39788;SDS011;25478;42.626;23.320;2023-04-03T08:20:23;19.57;;;11.17;;
39788;SDS011;25478;42.626;23.320;2023-04-03T08:22:50;17.20;;;11.30;;
39788;SDS011;25478;42.626;23.320;2023-04-03T08:25:15;18.77;;;12.43;;
39788;SDS011;25478;42.626;23.320;2023-04-03T08:27:42;20.33;;;11.30;;
39788;SDS011;25478;42.626;23.320;2023-04-03T08:30:08;18.60;;;11.83;;
39788;SDS011;25478;42.626;23.320;2023-04-03T08:32:34;20.77;;;12.07;;
39788;SDS011;25478;42.626;23.320;2023-04-03T08:35:01;21.10;;;12.33;;
39788;SDS011;25478;42.626;23.320;2023-04-03T08:37:27;20.80;;;12.07;;
39788;SDS011;25478;42.626;23.320;2023-04-03T08:39:52;17.83;;;12.27;;
39788;SDS011;25478;42.626;23.320;2023-04-03T08:45:14;21.10;;;12.27;;
39788;SDS011;25478;42.626;23.320;2023-04-03T08:48:26;21.33;;;12.63;;
39788;SDS011;25478;42.626;23.320;2023-04-03T08:50:39;19.75;;;11.95;;
39788;SDS011;25478;42.626;23.320;2023-04-03T08:53:17;24.53;;;11.53;;
39788;SDS011;25478;42.626;23.320;2023-04-03T08:55:47;20.70;;;10.53;;
39788;SDS011;25478;42.626;23.320;2023-04-03T09:03:21;15.65;;;10.30;;
39788;SDS011;25478;42.626;23.320;2023-04-03T09:05:52;16.27;;;10.03;;
39788;SDS011;25478;42.626;23.320;2023-04-03T09:11:04;11.37;;;6.00;;
39788;SDS011;25478;42.626;23.320;2023-04-03T09:14:15;14.67;;;5.40;;
39788;SDS011;25478;42.626;23.320;2023-04-03T09:16:35;6.47;;;3.20;;
39788;SDS011;25478;42.626;23.320;2023-04-03T09:19:21;5.47;;;2.50;;
39788;SDS011;25478;42.626;23.320;2023-04-03T09:24:43;3.43;;;2.03;;
39788;SDS011;25478;42.626;23.320;2023-04-03T09:27:12;3.00;;;1.73;;
39788;SDS011;25478;42.626;23.320;2023-04-03T09:29:41;2.73;;;1.70;;
39788;SDS011;25478;42.626;23.320;2023-04-03T09:32:21;3.40;;;1.60;;
39788;SDS011;25478;42.626;23.320;2023-04-03T09:34:55;4.20;;;1.80;;
39788;SDS011;25478;42.626;23.320;2023-04-03T09:43:01;2.67;;;1.50;;
39788;SDS011;25478;42.626;23.320;2023-04-03T09:53:29;4.00;;;1.70;;
39788;SDS011;25478;42.626;23.320;2023-04-03T09:56:02;2.67;;;1.60;;
39788;SDS011;25478;42.626;23.320;2023-04-03T09:58:46;2.43;;;1.23;;
39788;SDS011;25478;42.626;23.320;2023-04-03T10:01:23;2.72;;;1.50;;
39788;SDS011;25478;42.626;23.320;2023-04-03T10:06:44;2.17;;;1.47;;
39788;SDS011;25478;42.626;23.320;2023-04-03T10:09:25;2.90;;;1.63;;
39788;SDS011;25478;42.626;23.320;2023-04-03T10:15:17;4.30;;;1.80;;
39788;SDS011;25478;42.626;23.320;2023-04-03T10:20:01;4.13;;;1.80;;
39788;SDS011;25478;42.626;23.320;2023-04-03T10:30:30;3.07;;;1.83;;
39788;SDS011;25478;42.626;23.320;2023-04-03T10:35:37;3.20;;;1.67;;
39788;SDS011;25478;42.626;23.320;2023-04-03T10:38:38;3.53;;;1.53;;
39788;SDS011;25478;42.626;23.320;2023-04-03T10:50:10;3.95;;;1.85;;
39788;SDS011;25478;42.626;23.320;2023-04-03T10:55:34;4.47;;;1.77;;
39788;SDS011;25478;42.626;23.320;2023-04-03T10:58:05;3.33;;;1.90;;
39788;SDS011;25478;42.626;23.320;2023-04-03T11:00:39;4.47;;;2.50;;
39788;SDS011;25478;42.626;23.320;2023-04-03T11:03:11;3.87;;;2.03;;
39788;SDS011;25478;42.626;23.320;2023-04-03T11:05:47;4.63;;;2.37;;
39788;SDS011;25478;42.626;23.320;2023-04-03T11:08:32;4.67;;;2.40;;
39788;SDS011;25478;42.626;23.320;2023-04-03T11:11:11;4.60;;;3.00;;
39788;SDS011;25478;42.626;23.320;2023-04-03T11:16:48;5.57;;;2.80;;
39788;SDS011;25478;42.626;23.320;2023-04-03T11:19:39;5.37;;;3.00;;
39788;SDS011;25478;42.626;23.320;2023-04-03T11:22:27;5.90;;;3.30;;
39788;SDS011;25478;42.626;23.320;2023-04-03T11:27:40;6.50;;;3.50;;
39788;SDS011;25478;42.626;23.320;2023-04-03T11:30:14;6.23;;;3.43;;
39788;SDS011;25478;42.626;23.320;2023-04-03T11:32:50;6.77;;;3.80;;
39788;SDS011;25478;42.626;23.320;2023-04-03T11:35:27;5.57;;;3.47;;
39788;SDS011;25478;42.626;23.320;2023-04-03T11:37:53;6.33;;;3.80;;
39788;SDS011;25478;42.626;23.320;2023-04-03T11:40:30;6.13;;;3.57;;
39788;SDS011;25478;42.626;23.320;2023-04-03T11:47:51;8.53;;;5.53;;
39788;SDS011;25478;42.626;23.320;2023-04-03T12:05:56;15.65;;;9.02;;
39788;SDS011;25478;42.626;23.320;2023-04-03T12:40:09;5.25;;;3.58;;
39788;SDS011;25478;42.626;23.320;2023-04-03T12:45:56;5.00;;;3.40;;
39788;SDS011;25478;42.626;23.320;2023-04-03T12:48:53;5.57;;;3.57;;
39788;SDS011;25478;42.626;23.320;2023-04-03T12:56:41;5.05;;;3.33;;
39788;SDS011;25478;42.626;23.320;2023-04-03T12:59:19;5.27;;;3.17;;
39788;SDS011;25478;42.626;23.320;2023-04-03T13:01:57;8.43;;;4.80;;
39788;SDS011;25478;42.626;23.320;2023-04-03T13:04:23;10.00;;;6.40;;
39788;SDS011;25478;42.626;23.320;2023-04-03T13:06:51;10.30;;;5.77;;
39788;SDS011;25478;42.626;23.320;2023-04-03T13:14:49;15.17;;;7.03;;
39788;SDS011;25478;42.626;23.320;2023-04-03T13:17:18;11.50;;;7.20;;
39788;SDS011;25478;42.626;23.320;2023-04-03T13:19:44;8.37;;;4.70;;
39788;SDS011;25478;42.626;23.320;2023-04-03T13:22:30;10.70;;;5.20;;
39788;SDS011;25478;42.626;23.320;2023-04-03T13:25:05;8.90;;;5.77;;
39788;SDS011;25478;42.626;23.320;2023-04-03T13:27:33;10.27;;;5.70;;
39788;SDS011;25478;42.626;23.320;2023-04-03T13:29:59;11.50;;;5.97;;
39788;SDS011;25478;42.626;23.320;2023-04-03T13:32:28;9.07;;;6.10;;
39788;SDS011;25478;42.626;23.320;2023-04-03T13:34:56;7.70;;;5.30;;
39788;SDS011;25478;42.626;23.320;2023-04-03T13:37:33;7.77;;;5.57;;
39788;SDS011;25478;42.626;23.320;2023-04-03T13:42:32;6.97;;;4.37;;
39788;SDS011;25478;42.626;23.320;2023-04-03T13:45:33;6.43;;;4.67;;
39788;SDS011;25478;42.626;23.320;2023-04-03T13:48:08;5.63;;;3.87;;
39788;SDS011;25478;42.626;23.320;2023-04-03T13:50:59;7.03;;;3.70;;
39788;SDS011;25478;42.626;23.320;2023-04-03T13:53:29;5.40;;;4.10;;
39788;SDS011;25478;42.626;23.320;2023-04-03T13:58:28;6.97;;;4.50;;
39788;SDS011;25478;42.626;23.320;2023-04-03T14:03:46;5.83;;;4.40;;
39788;SDS011;25478;42.626;23.320;2023-04-03T14:06:19;4.40;;;3.00;;
39788;SDS011;25478;42.626;23.320;2023-04-03T14:08:45;5.10;;;3.23;;
39788;SDS011;25478;42.626;23.320;2023-04-03T14:13:43;6.80;;;3.93;;
39788;SDS011;25478;42.626;23.320;2023-04-03T14:16:12;8.13;;;5.20;;
39788;SDS011;25478;42.626;23.320;2023-04-03T14:18:42;6.20;;;3.53;;
39788;SDS011;25478;42.626;23.320;2023-04-03T14:21:10;4.77;;;3.33;;
39788;SDS011;25478;42.626;23.320;2023-04-03T14:23:38;3.87;;;3.40;;
39788;SDS011;25478;42.626;23.320;2023-04-03T14:26:04;5.63;;;3.63;;
39788;SDS011;25478;42.626;23.320;2023-04-03T14:28:35;5.17;;;4.00;;
39788;SDS011;25478;42.626;23.320;2023-04-03T14:31:01;4.17;;;3.37;;
39788;SDS011;25478;42.626;23.320;2023-04-03T14:33:26;6.87;;;4.10;;
39788;SDS011;25478;42.626;23.320;2023-04-03T14:35:54;5.00;;;3.40;;
39788;SDS011;25478;42.626;23.320;2023-04-03T14:38:27;9.20;;;4.70;;
39788;SDS011;25478;42.626;23.320;2023-04-03T14:40:55;10.33;;;5.47;;
39788;SDS011;25478;42.626;23.320;2023-04-03T14:43:22;10.37;;;5.60;;
39788;SDS011;25478;42.626;23.320;2023-04-03T14:45:48;7.37;;;4.60;;
39788;SDS011;25478;42.626;23.320;2023-04-03T14:48:19;6.07;;;4.70;;
39788;SDS011;25478;42.626;23.320;2023-04-03T14:50:48;7.00;;;4.83;;
39788;SDS011;25478;42.626;23.320;2023-04-03T14:53:15;5.67;;;3.90;;
39788;SDS011;25478;42.626;23.320;2023-04-03T14:55:43;7.20;;;4.27;;
39788;SDS011;25478;42.626;23.320;2023-04-03T14:58:15;4.53;;;3.20;;
39788;SDS011;25478;42.626;23.320;2023-04-03T15:00:43;5.90;;;3.40;;
39788;SDS011;25478;42.626;23.320;2023-04-03T15:03:20;5.43;;;3.60;;
39788;SDS011;25478;42.626;23.320;2023-04-03T15:05:47;5.87;;;4.07;;
39788;SDS011;25478;42.626;23.320;2023-04-03T15:08:18;6.67;;;3.37;;
39788;SDS011;25478;42.626;23.320;2023-04-03T15:10:52;5.10;;;3.37;;
39788;SDS011;25478;42.626;23.320;2023-04-03T15:13:19;7.03;;;3.60;;
39788;SDS011;25478;42.626;23.320;2023-04-03T15:15:45;4.87;;;3.20;;
39788;SDS011;25478;42.626;23.320;2023-04-03T15:18:25;7.07;;;4.50;;
39788;SDS011;25478;42.626;23.320;2023-04-03T15:20:52;7.43;;;4.60;;
39788;SDS011;25478;42.626;23.320;2023-04-03T15:23:18;11.07;;;5.70;;
39788;SDS011;25478;42.626;23.320;2023-04-03T15:25:45;11.43;;;5.80;;
39788;SDS011;25478;42.626;23.320;2023-04-03T15:28:22;9.07;;;5.53;;
39788;SDS011;25478;42.626;23.320;2023-04-03T15:30:52;8.43;;;4.70;;
39788;SDS011;25478;42.626;23.320;2023-04-03T15:33:17;6.27;;;4.13;;
39788;SDS011;25478;42.626;23.320;2023-04-03T15:35:44;8.63;;;4.53;;
39788;SDS011;25478;42.626;23.320;2023-04-03T15:38:10;8.10;;;4.67;;
39788;SDS011;25478;42.626;23.320;2023-04-03T15:40:37;9.07;;;4.40;;
39788;SDS011;25478;42.626;23.320;2023-04-03T15:43:03;6.07;;;4.00;;
39788;SDS011;25478;42.626;23.320;2023-04-03T15:45:30;6.30;;;4.33;;
39788;SDS011;25478;42.626;23.320;2023-04-03T15:47:56;6.47;;;4.60;;
39788;SDS011;25478;42.626;23.320;2023-04-03T15:50:23;5.97;;;4.40;;
39788;SDS011;25478;42.626;23.320;2023-04-03T15:52:50;6.97;;;4.77;;
39788;SDS011;25478;42.626;23.320;2023-04-03T15:55:22;6.03;;;4.13;;
39788;SDS011;25478;42.626;23.320;2023-04-03T15:57:48;6.13;;;3.90;;
39788;SDS011;25478;42.626;23.320;2023-04-03T16:00:14;6.47;;;4.60;;
39788;SDS011;25478;42.626;23.320;2023-04-03T16:02:40;6.37;;;4.10;;
39788;SDS011;25478;42.626;23.320;2023-04-03T16:05:08;6.77;;;4.23;;
39788;SDS011;25478;42.626;23.320;2023-04-03T16:07:36;5.90;;;3.97;;
39788;SDS011;25478;42.626;23.320;2023-04-03T16:10:03;7.10;;;4.07;;
39788;SDS011;25478;42.626;23.320;2023-04-03T16:12:29;7.03;;;4.37;;
39788;SDS011;25478;42.626;23.320;2023-04-03T16:14:55;7.20;;;4.40;;
39788;SDS011;25478;42.626;23.320;2023-04-03T16:17:20;8.07;;;4.90;;
39788;SDS011;25478;42.626;23.320;2023-04-03T16:19:46;7.63;;;4.90;;
39788;SDS011;25478;42.626;23.320;2023-04-03T16:22:11;7.67;;;5.03;;
39788;SDS011;25478;42.626;23.320;2023-04-03T16:24:37;5.97;;;3.83;;
39788;SDS011;25478;42.626;23.320;2023-04-03T16:27:03;5.67;;;3.40;;
39788;SDS011;25478;42.626;23.320;2023-04-03T16:29:29;5.47;;;3.30;;
39788;SDS011;25478;42.626;23.320;2023-04-03T16:31:54;4.73;;;3.23;;
39788;SDS011;25478;42.626;23.320;2023-04-03T16:34:22;4.73;;;3.60;;
39788;SDS011;25478;42.626;23.320;2023-04-03T16:36:48;4.37;;;2.73;;
39788;SDS011;25478;42.626;23.320;2023-04-03T16:39:13;5.50;;;2.90;;
39788;SDS011;25478;42.626;23.320;2023-04-03T16:41:40;5.20;;;2.87;;
39788;SDS011;25478;42.626;23.320;2023-04-03T16:44:05;4.07;;;2.63;;
39788;SDS011;25478;42.626;23.320;2023-04-03T16:46:32;4.70;;;2.40;;
39788;SDS011;25478;42.626;23.320;2023-04-03T16:48:58;4.23;;;2.40;;
39788;SDS011;25478;42.626;23.320;2023-04-03T16:51:23;4.10;;;2.80;;
39788;SDS011;25478;42.626;23.320;2023-04-03T16:53:49;4.17;;;2.40;;
39788;SDS011;25478;42.626;23.320;2023-04-03T16:56:14;4.87;;;2.80;;
39788;SDS011;25478;42.626;23.320;2023-04-03T16:58:40;4.30;;;2.60;;
39788;SDS011;25478;42.626;23.320;2023-04-03T17:01:12;3.87;;;2.27;;
39788;SDS011;25478;42.626;23.320;2023-04-03T17:03:41;4.10;;;2.60;;
39788;SDS011;25478;42.626;23.320;2023-04-03T17:06:06;4.20;;;2.60;;